Aérodrome :
LOGIN :

S'inscrire | Disclaimer

   EN    FR    IT 

 










Légende :    VFR   VFR Marginal   IFR   IFR Intensif   IFR Très Intensif
Visi : 
Plafond : 
>= 8 km
>= 3000ft
5 à 8 km
1000 à 3000 ft
1500m à 5 km
500 à 1000 ft
800 à 1500m
200 à 500 ft
< 800m
< 200 ft
Symboles :   Orages  Brouillard  Fortes neiges  Fortes précipitations  Vent > 20 kt
SIGMETs :   Divers  Orages  Givrage  Turbulence  Onde Orograph.  Cendres Volcan.






- Altitude de l'aérodrome : 33 ft
- Code IATA : MHZ


EGUN - RAF Mildenhall

DERNIER METAR :
  • 251556Z 26007KT 9999 FEW130 11/06 A3033 RMK AO2A SLP274 T01050064 FZRANO $

METARs EXPIRÉS :
  • 251456Z 28009KT 9999 SCT120 11/07 A3032 RMK AO2A SLP271 T01100065 53009 FZRANO $
  • 251356Z 28010KT 9999 SCT130 12/08 A3030 RMK AO2A SLP264 T01210084 FZRANO $

TAF TAF EGUN
Valide du 25 à 12h jusqu'au 26 à 18h UTC


251200Z 2512/2618 28012KT 9999 FEW020 BKN080 QNH3029INS
BECMG 2520/2521 29009KT 9999 FEW040 QNH3047INS TX12/2513Z TN01/2607Z



MET'MAP, la Météo Aéronautique d'un coup d'oeil ! - Copyright ORBIFLY Décembre 2007 - Disclaimer

ORBIFLY MET'MAP TEAM :

Programmation & Développement : Alexandra Zaïnal
Sur une idée originale de : Baudouin d'Aumeries
Assistance à la programmation : Marc-Olivier Méhu
Soutien technique & logistique : Manuel Goepfert

Contact : metmap@orbifly.com




SOURCES & CREDITS :

   NOAA